sensor_id;sensor_type;location;lat;lon;timestamp;pressure;altitude;pressure_sealevel;temperature;humidity
79463;BME280;68931;47.286;18.756;2023-07-31T00:00:03;100330.00;;;16.31;90.99
79463;BME280;68931;47.286;18.756;2023-07-31T00:00:35;100352.41;;;16.47;91.07
79463;BME280;68931;47.286;18.756;2023-07-31T00:01:09;100359.50;;;16.47;90.81
79463;BME280;68931;47.286;18.756;2023-07-31T00:01:41;100353.38;;;16.46;90.76
79463;BME280;68931;47.286;18.756;2023-07-31T00:02:13;100356.03;;;16.46;91.18
79463;BME280;68931;47.286;18.756;2023-07-31T00:02:45;100357.72;;;16.47;90.55
79463;BME280;68931;47.286;18.756;2023-07-31T00:03:17;100363.00;;;16.47;90.91
79463;BME280;68931;47.286;18.756;2023-07-31T00:03:49;100360.22;;;16.49;90.49
79463;BME280;68931;47.286;18.756;2023-07-31T00:04:21;100349.31;;;16.42;90.54
79463;BME280;68931;47.286;18.756;2023-07-31T00:04:53;100346.78;;;16.41;90.58
79463;BME280;68931;47.286;18.756;2023-07-31T00:05:25;100356.66;;;16.39;90.54
79463;BME280;68931;47.286;18.756;2023-07-31T00:05:57;100365.94;;;16.44;90.39
79463;BME280;68931;47.286;18.756;2023-07-31T00:06:32;100345.50;;;16.35;90.59
79463;BME280;68931;47.286;18.756;2023-07-31T00:07:05;100323.53;;;16.24;90.31
79463;BME280;68931;47.286;18.756;2023-07-31T00:07:40;100362.69;;;16.41;90.40
79463;BME280;68931;47.286;18.756;2023-07-31T00:08:12;100327.75;;;16.26;90.41
79463;BME280;68931;47.286;18.756;2023-07-31T00:08:44;100320.44;;;16.18;90.75
79463;BME280;68931;47.286;18.756;2023-07-31T00:09:16;100349.44;;;16.41;91.16
79463;BME280;68931;47.286;18.756;2023-07-31T00:09:48;100345.75;;;16.32;90.93
79463;BME280;68931;47.286;18.756;2023-07-31T00:10:20;100363.28;;;16.44;90.96
79463;BME280;68931;47.286;18.756;2023-07-31T00:10:53;100344.53;;;16.36;91.03
79463;BME280;68931;47.286;18.756;2023-07-31T00:11:25;100360.88;;;16.41;90.74
79463;BME280;68931;47.286;18.756;2023-07-31T00:11:57;100352.94;;;16.41;90.78
79463;BME280;68931;47.286;18.756;2023-07-31T00:12:29;100339.38;;;16.35;90.55
79463;BME280;68931;47.286;18.756;2023-07-31T00:13:01;100346.78;;;16.41;90.93
79463;BME280;68931;47.286;18.756;2023-07-31T00:13:33;100343.44;;;16.39;91.02
79463;BME280;68931;47.286;18.756;2023-07-31T00:14:08;100351.00;;;16.43;91.08
79463;BME280;68931;47.286;18.756;2023-07-31T00:14:40;100342.34;;;16.41;91.05
79463;BME280;68931;47.286;18.756;2023-07-31T00:15:13;100331.03;;;16.39;91.14
79463;BME280;68931;47.286;18.756;2023-07-31T00:15:46;100342.09;;;16.44;91.03
79463;BME280;68931;47.286;18.756;2023-07-31T00:16:18;100338.72;;;16.42;91.19
79463;BME280;68931;47.286;18.756;2023-07-31T00:16:50;100330.91;;;16.41;90.92
79463;BME280;68931;47.286;18.756;2023-07-31T00:17:23;100342.78;;;16.46;91.31
79463;BME280;68931;47.286;18.756;2023-07-31T00:17:55;100301.28;;;16.26;91.14
79463;BME280;68931;47.286;18.756;2023-07-31T00:18:27;100330.78;;;16.42;91.21
79463;BME280;68931;47.286;18.756;2023-07-31T00:18:59;100345.91;;;16.51;91.08
79463;BME280;68931;47.286;18.756;2023-07-31T00:19:31;100350.22;;;16.52;91.05
79463;BME280;68931;47.286;18.756;2023-07-31T00:20:03;100342.41;;;16.51;90.98
79463;BME280;68931;47.286;18.756;2023-07-31T00:20:35;100348.53;;;16.51;91.05
79463;BME280;68931;47.286;18.756;2023-07-31T00:21:07;100355.38;;;16.54;90.73
79463;BME280;68931;47.286;18.756;2023-07-31T00:21:39;100353.72;;;16.53;91.77
79463;BME280;68931;47.286;18.756;2023-07-31T00:22:11;100354.69;;;16.52;91.11
79463;BME280;68931;47.286;18.756;2023-07-31T00:22:43;100350.47;;;16.49;91.36
79463;BME280;68931;47.286;18.756;2023-07-31T00:23:15;100354.09;;;16.48;91.19
79463;BME280;68931;47.286;18.756;2023-07-31T00:23:47;100338.72;;;16.42;91.54
79463;BME280;68931;47.286;18.756;2023-07-31T00:24:19;100350.28;;;16.41;91.60
79463;BME280;68931;47.286;18.756;2023-07-31T00:24:51;100357.47;;;16.50;91.56
79463;BME280;68931;47.286;18.756;2023-07-31T00:25:24;100355.53;;;16.52;91.45
79463;BME280;68931;47.286;18.756;2023-07-31T00:25:58;100354.81;;;16.50;91.75
79463;BME280;68931;47.286;18.756;2023-07-31T00:26:30;100356.50;;;16.51;91.62
79463;BME280;68931;47.286;18.756;2023-07-31T00:27:02;100316.03;;;16.29;91.45
79463;BME280;68931;47.286;18.756;2023-07-31T00:27:34;100353.56;;;16.54;91.34
79463;BME280;68931;47.286;18.756;2023-07-31T00:28:06;100356.22;;;16.54;91.74
79463;BME280;68931;47.286;18.756;2023-07-31T00:28:38;100365.97;;;16.54;91.53
79463;BME280;68931;47.286;18.756;2023-07-31T00:29:10;100354.81;;;16.50;91.95
79463;BME280;68931;47.286;18.756;2023-07-31T00:29:42;100358.75;;;16.56;91.95
79463;BME280;68931;47.286;18.756;2023-07-31T00:30:14;100329.63;;;16.35;91.96
79463;BME280;68931;47.286;18.756;2023-07-31T00:30:46;100358.75;;;16.56;92.46
79463;BME280;68931;47.286;18.756;2023-07-31T00:31:18;100367.53;;;16.56;92.10
79463;BME280;68931;47.286;18.756;2023-07-31T00:31:50;100357.91;;;16.55;92.26
79463;BME280;68931;47.286;18.756;2023-07-31T00:32:22;100350.78;;;16.56;92.10
79463;BME280;68931;47.286;18.756;2023-07-31T00:32:54;100350.22;;;16.52;92.18
79463;BME280;68931;47.286;18.756;2023-07-31T00:33:34;100357.06;;;16.55;92.28
79463;BME280;68931;47.286;18.756;2023-07-31T00:34:06;100349.50;;;16.50;92.17
79463;BME280;68931;47.286;18.756;2023-07-31T00:34:38;100363.91;;;16.58;91.90
79463;BME280;68931;47.286;18.756;2023-07-31T00:35:10;100356.81;;;16.58;92.49
79463;BME280;68931;47.286;18.756;2023-07-31T00:35:42;100350.22;;;16.52;92.24
79463;BME280;68931;47.286;18.756;2023-07-31T00:36:14;100357.44;;;16.62;92.38
79463;BME280;68931;47.286;18.756;2023-07-31T00:36:46;100358.38;;;16.61;92.46
79463;BME280;68931;47.286;18.756;2023-07-31T00:37:18;100353.19;;;16.59;92.34
79463;BME280;68931;47.286;18.756;2023-07-31T00:37:50;100359.25;;;16.61;91.93
79463;BME280;68931;47.286;18.756;2023-07-31T00:38:22;100349.94;;;16.55;92.70
79463;BME280;68931;47.286;18.756;2023-07-31T00:38:54;100354.88;;;16.60;92.45
79463;BME280;68931;47.286;18.756;2023-07-31T00:39:26;100356.31;;;16.64;92.57
79463;BME280;68931;47.286;18.756;2023-07-31T00:39:58;100357.16;;;16.65;92.36
79463;BME280;68931;47.286;18.756;2023-07-31T00:40:34;100359.09;;;16.63;92.22
79463;BME280;68931;47.286;18.756;2023-07-31T00:41:07;100343.56;;;16.58;92.61
79463;BME280;68931;47.286;18.756;2023-07-31T00:41:39;100354.63;;;16.63;92.70
79463;BME280;68931;47.286;18.756;2023-07-31T00:42:11;100357.88;;;16.67;92.51
79463;BME280;68931;47.286;18.756;2023-07-31T00:42:43;100362.44;;;16.65;92.93
79463;BME280;68931;47.286;18.756;2023-07-31T00:43:14;100360.75;;;16.64;92.97
79463;BME280;68931;47.286;18.756;2023-07-31T00:43:46;100362.44;;;16.65;93.12
79463;BME280;68931;47.286;18.756;2023-07-31T00:44:18;100354.16;;;16.58;93.05
79463;BME280;68931;47.286;18.756;2023-07-31T00:44:50;100361.72;;;16.63;92.70
79463;BME280;68931;47.286;18.756;2023-07-31T00:45:23;100366.78;;;16.66;93.18
79463;BME280;68931;47.286;18.756;2023-07-31T00:45:55;100371.38;;;16.64;92.94
79463;BME280;68931;47.286;18.756;2023-07-31T00:46:28;100376.41;;;16.67;92.81
79463;BME280;68931;47.286;18.756;2023-07-31T00:47:02;100379.06;;;16.67;93.11
79463;BME280;68931;47.286;18.756;2023-07-31T00:47:34;100378.63;;;16.62;92.65
79463;BME280;68931;47.286;18.756;2023-07-31T00:48:06;100375.13;;;16.61;92.44
79463;BME280;68931;47.286;18.756;2023-07-31T00:48:39;100371.97;;;16.56;92.08
79463;BME280;68931;47.286;18.756;2023-07-31T00:49:12;100370.06;;;16.58;91.49
79463;BME280;68931;47.286;18.756;2023-07-31T00:49:44;100373.53;;;16.59;91.64
79463;BME280;68931;47.286;18.756;2023-07-31T00:50:17;100377.38;;;16.66;92.24
79463;BME280;68931;47.286;18.756;2023-07-31T00:50:50;100371.72;;;16.59;92.69
79463;BME280;68931;47.286;18.756;2023-07-31T00:51:22;100373.69;;;16.78;93.29
79463;BME280;68931;47.286;18.756;2023-07-31T00:51:54;100360.69;;;16.75;94.21
79463;BME280;68931;47.286;18.756;2023-07-31T00:52:29;100369.69;;;16.83;94.38
79463;BME280;68931;47.286;18.756;2023-07-31T00:53:01;100371.09;;;16.87;94.45
79463;BME280;68931;47.286;18.756;2023-07-31T00:53:33;100367.31;;;16.90;94.60
79463;BME280;68931;47.286;18.756;2023-07-31T00:54:06;100370.44;;;16.95;94.61
79463;BME280;68931;47.286;18.756;2023-07-31T00:54:38;100368.75;;;16.94;94.56
79463;BME280;68931;47.286;18.756;2023-07-31T00:55:10;100366.81;;;16.96;94.67
79463;BME280;68931;47.286;18.756;2023-07-31T00:55:43;100368.94;;;17.02;94.73
79463;BME280;68931;47.286;18.756;2023-07-31T00:56:16;100373.66;;;16.99;94.73
79463;BME280;68931;47.286;18.756;2023-07-31T00:56:50;100364.84;;;16.98;94.55
79463;BME280;68931;47.286;18.756;2023-07-31T00:57:24;100374.81;;;17.06;94.49
79463;BME280;68931;47.286;18.756;2023-07-31T00:57:56;100363.63;;;17.02;94.39
79463;BME280;68931;47.286;18.756;2023-07-31T00:58:28;100378.75;;;17.11;94.32
79463;BME280;68931;47.286;18.756;2023-07-31T00:59:00;100332.03;;;16.89;94.24
79463;BME280;68931;47.286;18.756;2023-07-31T00:59:32;100375.00;;;17.14;94.30
79463;BME280;68931;47.286;18.756;2023-07-31T01:00:04;100370.66;;;17.13;94.39
79463;BME280;68931;47.286;18.756;2023-07-31T01:00:37;100370.66;;;17.13;94.17
79463;BME280;68931;47.286;18.756;2023-07-31T01:01:09;100375.84;;;17.14;94.04
79463;BME280;68931;47.286;18.756;2023-07-31T01:01:41;100377.50;;;17.15;94.12
79463;BME280;68931;47.286;18.756;2023-07-31T01:02:13;100377.50;;;17.15;94.18
79463;BME280;68931;47.286;18.756;2023-07-31T01:02:45;100378.34;;;17.16;94.08
79463;BME280;68931;47.286;18.756;2023-07-31T01:03:18;100371.38;;;17.15;94.03
79463;BME280;68931;47.286;18.756;2023-07-31T01:03:52;100359.47;;;17.09;94.25
79463;BME280;68931;47.286;18.756;2023-07-31T01:04:28;100371.50;;;17.13;94.01
79463;BME280;68931;47.286;18.756;2023-07-31T01:05:01;100359.47;;;17.09;93.87
79463;BME280;68931;47.286;18.756;2023-07-31T01:05:46;100378.22;;;17.17;93.94
79463;BME280;68931;47.286;18.756;2023-07-31T01:07:22;100377.38;;;17.17;94.03
79463;BME280;68931;47.286;18.756;2023-07-31T01:08:24;100372.34;;;17.14;94.03
79463;BME280;68931;47.286;18.756;2023-07-31T01:09:04;100391.34;;;17.19;93.90
79463;BME280;68931;47.286;18.756;2023-07-31T01:10:32;100392.44;;;17.16;93.41
79463;BME280;68931;47.286;18.756;2023-07-31T01:11:21;100397.72;;;17.16;93.79
79463;BME280;68931;47.286;18.756;2023-07-31T01:12:01;100389.78;;;17.16;93.57
79463;BME280;68931;47.286;18.756;2023-07-31T01:12:34;100394.94;;;17.18;93.62
79463;BME280;68931;47.286;18.756;2023-07-31T01:13:08;100395.09;;;17.16;93.35
79463;BME280;68931;47.286;18.756;2023-07-31T01:13:40;100401.94;;;17.19;93.21
79463;BME280;68931;47.286;18.756;2023-07-31T01:14:12;100391.59;;;17.16;93.15
79463;BME280;68931;47.286;18.756;2023-07-31T01:15:03;100388.63;;;17.09;93.20
79463;BME280;68931;47.286;18.756;2023-07-31T01:15:35;100396.75;;;17.17;93.76
79463;BME280;68931;47.286;18.756;2023-07-31T01:16:08;100373.97;;;17.05;93.25
79463;BME280;68931;47.286;18.756;2023-07-31T01:16:40;100390.50;;;17.18;92.96
79463;BME280;68931;47.286;18.756;2023-07-31T01:17:12;100388.25;;;17.14;93.21
79463;BME280;68931;47.286;18.756;2023-07-31T01:17:44;100365.84;;;16.97;93.43
79463;BME280;68931;47.286;18.756;2023-07-31T01:18:16;100392.44;;;17.16;93.06
79463;BME280;68931;47.286;18.756;2023-07-31T01:18:48;100393.56;;;17.14;93.21
79463;BME280;68931;47.286;18.756;2023-07-31T01:19:22;100395.09;;;17.16;92.95
79463;BME280;68931;47.286;18.756;2023-07-31T01:20:01;100394.13;;;17.17;92.96
79463;BME280;68931;47.286;18.756;2023-07-31T01:20:37;100392.72;;;17.13;92.99
79463;BME280;68931;47.286;18.756;2023-07-31T01:24:12;100382.38;;;17.10;93.02
79463;BME280;68931;47.286;18.756;2023-07-31T01:26:23;100389.59;;;17.08;92.86
79463;BME280;68931;47.286;18.756;2023-07-31T01:27:10;100388.63;;;17.09;92.83
79463;BME280;68931;47.286;18.756;2023-07-31T01:27:56;100386.00;;;17.09;92.85
79463;BME280;68931;47.286;18.756;2023-07-31T01:29:29;100366.81;;;16.96;92.75
79463;BME280;68931;47.286;18.756;2023-07-31T01:30:11;100381.09;;;17.05;92.93
79463;BME280;68931;47.286;18.756;2023-07-31T01:30:48;100376.19;;;17.00;93.05
79463;BME280;68931;47.286;18.756;2023-07-31T01:31:23;100341.78;;;16.79;93.14
79463;BME280;68931;47.286;18.756;2023-07-31T01:32:01;100377.84;;;17.01;92.90
79463;BME280;68931;47.286;18.756;2023-07-31T01:32:34;100380.63;;;17.00;93.12
79463;BME280;68931;47.286;18.756;2023-07-31T01:33:07;100377.03;;;17.01;92.79
79463;BME280;68931;47.286;18.756;2023-07-31T01:33:40;100373.16;;;17.05;93.35
79463;BME280;68931;47.286;18.756;2023-07-31T01:34:14;100364.47;;;17.03;93.02
79463;BME280;68931;47.286;18.756;2023-07-31T01:34:49;100365.50;;;17.11;93.25
79463;BME280;68931;47.286;18.756;2023-07-31T01:35:25;100346.88;;;17.02;93.16
79463;BME280;68931;47.286;18.756;2023-07-31T01:35:57;100365.50;;;17.11;92.97
79463;BME280;68931;47.286;18.756;2023-07-31T01:36:30;100362.00;;;17.11;92.85
79463;BME280;68931;47.286;18.756;2023-07-31T01:37:04;100338.50;;;16.97;92.88
79463;BME280;68931;47.286;18.756;2023-07-31T01:37:36;100366.47;;;17.10;92.75
79463;BME280;68931;47.286;18.756;2023-07-31T01:38:08;100361.69;;;17.04;92.97
79463;BME280;68931;47.286;18.756;2023-07-31T01:38:40;100360.56;;;17.07;92.98
79463;BME280;68931;47.286;18.756;2023-07-31T01:39:12;100345.22;;;17.01;93.13
79463;BME280;68931;47.286;18.756;2023-07-31T01:39:47;100339.59;;;16.94;92.62
79463;BME280;68931;47.286;18.756;2023-07-31T01:40:19;100357.50;;;17.02;92.58
79463;BME280;68931;47.286;18.756;2023-07-31T01:40:52;100348.13;;;16.98;92.81
79463;BME280;68931;47.286;18.756;2023-07-31T01:41:25;100358.34;;;17.02;92.85
79463;BME280;68931;47.286;18.756;2023-07-31T01:41:57;100343.94;;;16.95;92.82
79463;BME280;68931;47.286;18.756;2023-07-31T01:42:29;100345.34;;;16.99;93.14
79463;BME280;68931;47.286;18.756;2023-07-31T01:43:00;100338.63;;;16.95;92.79
79463;BME280;68931;47.286;18.756;2023-07-31T01:43:32;100340.63;;;17.03;92.93
79463;BME280;68931;47.286;18.756;2023-07-31T01:44:05;100330.94;;;16.92;93.12
79463;BME280;68931;47.286;18.756;2023-07-31T01:44:37;100342.56;;;17.01;93.24
79463;BME280;68931;47.286;18.756;2023-07-31T01:45:09;100302.03;;;16.79;92.88
79463;BME280;68931;47.286;18.756;2023-07-31T01:45:41;100339.66;;;17.04;92.87
79463;BME280;68931;47.286;18.756;2023-07-31T01:46:13;100335.06;;;17.06;93.31
79463;BME280;68931;47.286;18.756;2023-07-31T01:46:45;100343.00;;;17.06;93.37
79463;BME280;68931;47.286;18.756;2023-07-31T01:47:17;100331.25;;;16.99;93.00
79463;BME280;68931;47.286;18.756;2023-07-31T01:47:51;100324.41;;;16.96;93.18
79463;BME280;68931;47.286;18.756;2023-07-31T01:48:25;100306.66;;;16.87;92.79
79463;BME280;68931;47.286;18.756;2023-07-31T01:48:57;100336.16;;;17.03;93.26
79463;BME280;68931;47.286;18.756;2023-07-31T01:49:29;100341.03;;;17.08;93.13
79463;BME280;68931;47.286;18.756;2023-07-31T01:50:01;100345.13;;;17.12;93.08
79463;BME280;68931;47.286;18.756;2023-07-31T01:50:33;100346.09;;;17.11;92.97
79463;BME280;68931;47.286;18.756;2023-07-31T01:51:05;100348.63;;;17.12;93.13
79463;BME280;68931;47.286;18.756;2023-07-31T01:51:37;100342.34;;;17.13;93.11
79463;BME280;68931;47.286;18.756;2023-07-31T01:52:09;100306.38;;;16.90;92.96
79463;BME280;68931;47.286;18.756;2023-07-31T01:52:41;100351.13;;;17.14;92.91
79463;BME280;68931;47.286;18.756;2023-07-31T01:53:13;100335.91;;;17.06;92.92
79463;BME280;68931;47.286;18.756;2023-07-31T01:53:45;100347.66;;;17.13;92.72
79463;BME280;68931;47.286;18.756;2023-07-31T01:54:17;100339.94;;;17.10;92.88
79463;BME280;68931;47.286;18.756;2023-07-31T01:54:49;100347.78;;;17.12;92.92
79463;BME280;68931;47.286;18.756;2023-07-31T01:55:21;100339.66;;;17.04;92.91
79463;BME280;68931;47.286;18.756;2023-07-31T01:55:53;100350.44;;;17.12;93.01
79463;BME280;68931;47.286;18.756;2023-07-31T01:56:25;100333.25;;;17.06;92.88
79463;BME280;68931;47.286;18.756;2023-07-31T01:56:57;100346.09;;;17.11;92.80
79463;BME280;68931;47.286;18.756;2023-07-31T01:57:29;100350.56;;;17.10;92.69
79463;BME280;68931;47.286;18.756;2023-07-31T01:58:01;100351.41;;;17.11;92.49
79463;BME280;68931;47.286;18.756;2023-07-31T01:58:33;100325.38;;;16.95;92.79
79463;BME280;68931;47.286;18.756;2023-07-31T01:59:14;100349.72;;;17.10;92.85
79463;BME280;68931;47.286;18.756;2023-07-31T01:59:46;100345.50;;;17.07;92.81
79463;BME280;68931;47.286;18.756;2023-07-31T02:00:18;100318.22;;;16.86;92.61
79463;BME280;68931;47.286;18.756;2023-07-31T02:00:50;100355.84;;;17.10;93.13
79463;BME280;68931;47.286;18.756;2023-07-31T02:01:22;100359.22;;;17.12;92.75
79463;BME280;68931;47.286;18.756;2023-07-31T02:01:54;100353.22;;;17.10;92.36
79463;BME280;68931;47.286;18.756;2023-07-31T02:02:26;100351.28;;;17.12;92.89
79463;BME280;68931;47.286;18.756;2023-07-31T02:02:59;100352.22;;;17.11;92.42
79463;BME280;68931;47.286;18.756;2023-07-31T02:03:31;100343.56;;;17.09;92.42
79463;BME280;68931;47.286;18.756;2023-07-31T02:04:03;100348.88;;;17.09;92.36
79463;BME280;68931;47.286;18.756;2023-07-31T02:04:36;100350.81;;;17.07;92.30
79463;BME280;68931;47.286;18.756;2023-07-31T02:05:10;100337.97;;;17.03;92.46
79463;BME280;68931;47.286;18.756;2023-07-31T02:05:45;100309.44;;;16.85;92.29
79463;BME280;68931;47.286;18.756;2023-07-31T02:06:18;100338.81;;;17.03;92.33
79463;BME280;68931;47.286;18.756;2023-07-31T02:06:50;100336.00;;;16.95;92.48
79463;BME280;68931;47.286;18.756;2023-07-31T02:07:22;100339.59;;;16.94;92.23
79463;BME280;68931;47.286;18.756;2023-07-31T02:07:54;100350.75;;;16.98;92.66
79463;BME280;68931;47.286;18.756;2023-07-31T02:08:26;100346.47;;;16.97;92.54
79463;BME280;68931;47.286;18.756;2023-07-31T02:09:00;100351.91;;;16.95;92.49
79463;BME280;68931;47.286;18.756;2023-07-31T02:09:32;100346.59;;;16.95;92.12
79463;BME280;68931;47.286;18.756;2023-07-31T02:10:04;100354.78;;;16.92;92.63
79463;BME280;68931;47.286;18.756;2023-07-31T02:10:42;100352.16;;;16.92;92.86
79463;BME280;68931;47.286;18.756;2023-07-31T02:11:14;100359.13;;;16.93;92.83
79463;BME280;68931;47.286;18.756;2023-07-31T02:11:46;100352.28;;;16.90;92.47
79463;BME280;68931;47.286;18.756;2023-07-31T02:12:18;100350.34;;;16.92;92.52
79463;BME280;68931;47.286;18.756;2023-07-31T02:12:50;100342.78;;;16.88;92.59
79463;BME280;68931;47.286;18.756;2023-07-31T02:13:22;100354.06;;;16.90;92.35
79463;BME280;68931;47.286;18.756;2023-07-31T02:13:54;100351.00;;;16.85;92.39
79463;BME280;68931;47.286;18.756;2023-07-31T02:14:26;100309.13;;;16.58;92.65
79463;BME280;68931;47.286;18.756;2023-07-31T02:14:58;100345.94;;;16.82;92.63
79463;BME280;68931;47.286;18.756;2023-07-31T02:15:30;100336.97;;;16.73;92.41
79463;BME280;68931;47.286;18.756;2023-07-31T02:16:02;100354.88;;;16.81;92.77
79463;BME280;68931;47.286;18.756;2023-07-31T02:16:34;100347.88;;;16.80;93.03
79463;BME280;68931;47.286;18.756;2023-07-31T02:17:06;100308.41;;;16.56;92.79
79463;BME280;68931;47.286;18.756;2023-07-31T02:17:38;100354.03;;;16.80;92.84
79463;BME280;68931;47.286;18.756;2023-07-31T02:18:10;100343.13;;;16.74;93.15
79463;BME280;68931;47.286;18.756;2023-07-31T02:18:42;100357.50;;;16.81;92.80
79463;BME280;68931;47.286;18.756;2023-07-31T02:19:14;100357.22;;;16.74;92.84
79463;BME280;68931;47.286;18.756;2023-07-31T02:19:48;100352.16;;;16.71;92.92
79463;BME280;68931;47.286;18.756;2023-07-31T02:20:20;100310.16;;;16.46;93.35
79463;BME280;68931;47.286;18.756;2023-07-31T02:20:52;100351.97;;;16.63;93.13
79463;BME280;68931;47.286;18.756;2023-07-31T02:21:24;100344.41;;;16.59;92.84
79463;BME280;68931;47.286;18.756;2023-07-31T02:21:56;100345.25;;;16.59;92.95
79463;BME280;68931;47.286;18.756;2023-07-31T02:22:28;100365.41;;;16.71;93.15
79463;BME280;68931;47.286;18.756;2023-07-31T02:23:00;100328.44;;;16.49;93.07
79463;BME280;68931;47.286;18.756;2023-07-31T02:23:33;100375.88;;;16.73;92.85
79463;BME280;68931;47.286;18.756;2023-07-31T02:24:05;100365.41;;;16.71;92.62
79463;BME280;68931;47.286;18.756;2023-07-31T02:24:39;100359.44;;;16.69;92.99
79463;BME280;68931;47.286;18.756;2023-07-31T02:25:11;100366.53;;;16.69;92.89
79463;BME280;68931;47.286;18.756;2023-07-31T02:25:44;100352.97;;;16.62;92.86
79463;BME280;68931;47.286;18.756;2023-07-31T02:26:16;100369.75;;;16.72;93.10
79463;BME280;68931;47.286;18.756;2023-07-31T02:26:48;100370.72;;;16.71;92.98
79463;BME280;68931;47.286;18.756;2023-07-31T02:27:20;100368.22;;;16.70;93.08
79463;BME280;68931;47.286;18.756;2023-07-31T02:27:55;100370.28;;;16.66;92.77
79463;BME280;68931;47.286;18.756;2023-07-31T02:28:28;100380.63;;;16.69;92.81
79463;BME280;68931;47.286;18.756;2023-07-31T02:29:00;100369.56;;;16.64;92.71
79463;BME280;68931;47.286;18.756;2023-07-31T02:29:32;100370.69;;;16.62;92.63
79463;BME280;68931;47.286;18.756;2023-07-31T02:30:05;100382.94;;;16.63;92.43
79463;BME280;68931;47.286;18.756;2023-07-31T02:30:37;100372.09;;;16.54;92.43
79463;BME280;68931;47.286;18.756;2023-07-31T02:31:09;100379.81;;;16.58;92.27
79463;BME280;68931;47.286;18.756;2023-07-31T02:31:41;100379.09;;;16.55;92.21
79463;BME280;68931;47.286;18.756;2023-07-31T02:32:13;100377.56;;;16.53;92.15
79463;BME280;68931;47.286;18.756;2023-07-31T02:32:45;100381.28;;;16.50;92.51
79463;BME280;68931;47.286;18.756;2023-07-31T02:33:17;100383.41;;;16.56;92.35
79463;BME280;68931;47.286;18.756;2023-07-31T02:33:52;100385.09;;;16.58;92.12
79463;BME280;68931;47.286;18.756;2023-07-31T02:34:24;100344.16;;;16.41;92.06
79463;BME280;68931;47.286;18.756;2023-07-31T02:34:56;100372.25;;;16.53;92.43
79463;BME280;68931;47.286;18.756;2023-07-31T02:35:28;100384.00;;;16.60;92.54
79463;BME280;68931;47.286;18.756;2023-07-31T02:36:00;100372.63;;;16.48;92.30
79463;BME280;68931;47.286;18.756;2023-07-31T02:36:32;100350.94;;;16.34;92.03
79463;BME280;68931;47.286;18.756;2023-07-31T02:37:05;100388.16;;;16.53;92.19
79463;BME280;68931;47.286;18.756;2023-07-31T02:37:37;100382.97;;;16.51;92.46
79463;BME280;68931;47.286;18.756;2023-07-31T02:38:09;100381.28;;;16.50;92.31
79463;BME280;68931;47.286;18.756;2023-07-31T02:38:41;100378.66;;;16.50;92.47
79463;BME280;68931;47.286;18.756;2023-07-31T02:39:13;100367.03;;;16.42;91.98
79463;BME280;68931;47.286;18.756;2023-07-31T02:39:45;100368.31;;;16.47;92.34
79463;BME280;68931;47.286;18.756;2023-07-31T02:40:17;100373.59;;;16.47;92.23
79463;BME280;68931;47.286;18.756;2023-07-31T02:40:49;100372.19;;;16.43;92.16
79463;BME280;68931;47.286;18.756;2023-07-31T02:41:21;100376.97;;;16.49;92.51
79463;BME280;68931;47.286;18.756;2023-07-31T02:41:53;100344.78;;;16.33;92.52
79463;BME280;68931;47.286;18.756;2023-07-31T02:42:25;100375.03;;;16.51;92.37
79463;BME280;68931;47.286;18.756;2023-07-31T02:42:57;100357.50;;;16.39;92.20
79463;BME280;68931;47.286;18.756;2023-07-31T02:43:29;100373.91;;;16.54;92.28
79463;BME280;68931;47.286;18.756;2023-07-31T02:44:01;100370.28;;;16.55;92.48
79463;BME280;68931;47.286;18.756;2023-07-31T02:44:33;100372.69;;;16.58;92.28
79463;BME280;68931;47.286;18.756;2023-07-31T02:45:06;100358.63;;;16.58;92.28
79463;BME280;68931;47.286;18.756;2023-07-31T02:45:38;100372.06;;;16.66;92.06
79463;BME280;68931;47.286;18.756;2023-07-31T02:46:10;100366.78;;;16.66;91.82
79463;BME280;68931;47.286;18.756;2023-07-31T02:46:42;100369.19;;;16.69;91.80
79463;BME280;68931;47.286;18.756;2023-07-31T02:47:14;100373.22;;;16.73;91.44
79463;BME280;68931;47.286;18.756;2023-07-31T02:47:46;100348.66;;;16.61;91.44
79463;BME280;68931;47.286;18.756;2023-07-31T02:48:18;100350.88;;;16.66;91.08
79463;BME280;68931;47.286;18.756;2023-07-31T02:48:51;100371.88;;;16.78;91.25
79463;BME280;68931;47.286;18.756;2023-07-31T02:49:23;100377.88;;;16.80;91.05
79463;BME280;68931;47.286;18.756;2023-07-31T02:50:01;100371.59;;;16.81;90.97
79463;BME280;68931;47.286;18.756;2023-07-31T02:50:33;100364.78;;;16.79;91.02
79463;BME280;68931;47.286;18.756;2023-07-31T02:51:05;100365.34;;;16.82;91.28
79463;BME280;68931;47.286;18.756;2023-07-31T02:51:37;100370.50;;;16.84;90.81
79463;BME280;68931;47.286;18.756;2023-07-31T02:52:09;100376.66;;;16.84;90.51
79463;BME280;68931;47.286;18.756;2023-07-31T02:52:41;100368.84;;;16.83;91.05
79463;BME280;68931;47.286;18.756;2023-07-31T02:53:13;100367.75;;;16.85;90.79
79463;BME280;68931;47.286;18.756;2023-07-31T02:53:47;100359.06;;;16.83;90.68
79463;BME280;68931;47.286;18.756;2023-07-31T02:54:19;100371.94;;;16.88;90.46
79463;BME280;68931;47.286;18.756;2023-07-31T02:54:53;100376.72;;;16.94;90.75
79463;BME280;68931;47.286;18.756;2023-07-31T02:55:28;100372.25;;;16.95;90.48
79463;BME280;68931;47.286;18.756;2023-07-31T02:56:00;100380.19;;;16.95;90.36
79463;BME280;68931;47.286;18.756;2023-07-31T02:56:32;100373.22;;;16.93;90.34
79463;BME280;68931;47.286;18.756;2023-07-31T02:57:04;100368.03;;;16.92;90.39
79463;BME280;68931;47.286;18.756;2023-07-31T02:57:36;100371.41;;;16.94;90.01